createdAt,value
2019-03-21T00:00:33.949Z,102513.30
2019-03-21T00:01:58.370Z,102504.53
2019-03-21T00:03:02.888Z,102505.36
2019-03-21T00:04:12.711Z,102503.66
2019-03-21T00:05:18.203Z,102508.86
2019-03-21T00:06:22.740Z,102510.59
2019-03-21T00:07:27.388Z,102507.14
2019-03-21T00:08:32.205Z,102511.02
2019-03-21T00:09:39.333Z,102511.48
2019-03-21T00:11:06.038Z,102511.53
2019-03-21T00:12:11.285Z,102510.19
2019-03-21T00:13:18.448Z,102509.77
2019-03-21T00:14:47.033Z,102503.14
2019-03-21T00:15:57.465Z,102504.52
2019-03-21T00:17:03.703Z,102504.92
2019-03-21T00:18:13.818Z,102505.78
2019-03-21T00:19:21.424Z,102509.30
2019-03-21T00:20:28.874Z,102510.20
2019-03-21T00:21:33.337Z,102508.86
2019-03-21T00:22:37.803Z,102504.05
2019-03-21T00:23:43.327Z,102504.92
2019-03-21T00:24:50.941Z,102510.19
2019-03-21T00:25:55.723Z,102512.73
2019-03-21T00:27:00.264Z,102511.86
2019-03-21T00:28:05.145Z,102511.52
2019-03-21T00:29:09.705Z,102510.20
2019-03-21T00:30:22.982Z,102518.05
2019-03-21T00:31:27.519Z,102516.33
2019-03-21T00:32:32.071Z,102515.42
2019-03-21T00:33:36.558Z,102521.58
2019-03-21T00:34:41.022Z,102516.73
2019-03-21T00:35:48.218Z,102516.73
2019-03-21T00:36:52.966Z,102526.87
2019-03-21T00:38:00.454Z,102528.56
2019-03-21T00:39:07.553Z,102525.52
2019-03-21T00:40:17.989Z,102527.69
2019-03-21T00:41:22.459Z,102522.02
2019-03-21T00:42:27.232Z,102520.27
2019-03-21T00:43:32.690Z,102522.49
2019-03-21T00:44:37.465Z,102519.90
2019-03-21T00:45:44.691Z,102518.59
2019-03-21T00:46:52.147Z,102512.90
2019-03-21T00:47:56.621Z,102520.72
2019-03-21T00:49:01.114Z,102515.45
2019-03-21T00:50:14.072Z,102516.42
2019-03-21T00:51:21.632Z,102515.93
2019-03-21T00:52:29.060Z,102518.97
2019-03-21T00:53:36.878Z,102520.69
2019-03-21T00:54:41.367Z,102521.52
2019-03-21T00:56:01.328Z,102525.45
2019-03-21T00:57:05.792Z,102521.58
2019-03-21T00:58:10.634Z,102520.27
2019-03-21T00:59:19.044Z,102523.40
2019-03-21T01:00:29.473Z,102523.34
2019-03-21T01:01:34.252Z,102518.89
2019-03-21T01:02:38.723Z,102511.92
2019-03-21T01:03:43.230Z,102511.94
2019-03-21T01:04:47.987Z,102513.70
2019-03-21T01:05:52.455Z,102514.11
2019-03-21T01:06:56.928Z,102511.92
2019-03-21T01:08:04.449Z,102520.20
2019-03-21T01:09:16.853Z,102515.42
2019-03-21T01:10:29.276Z,102515.42
2019-03-21T01:11:36.738Z,102517.58
2019-03-21T01:12:41.213Z,102515.38
2019-03-21T01:13:46.075Z,102514.48
2019-03-21T01:14:51.847Z,102514.87
2019-03-21T01:15:56.320Z,102517.51
2019-03-21T01:17:03.469Z,102513.23
2019-03-21T01:18:12.242Z,102517.59
2019-03-21T01:19:16.863Z,102511.44
2019-03-21T01:20:21.356Z,102511.02
2019-03-21T01:21:29.602Z,102507.55
2019-03-21T01:22:34.448Z,102507.47
2019-03-21T01:23:38.915Z,102510.95
2019-03-21T01:24:43.706Z,102509.23
2019-03-21T01:25:54.323Z,102504.47
2019-03-21T01:26:58.863Z,102509.30
2019-03-21T01:28:06.674Z,102505.30
2019-03-21T01:29:14.094Z,102507.98
2019-03-21T01:30:20.730Z,102507.58
2019-03-21T01:31:28.269Z,102505.86
2019-03-21T01:32:35.980Z,102509.80
2019-03-21T01:33:40.457Z,102503.95
2019-03-21T01:34:45.257Z,102507.08
2019-03-21T01:35:50.043Z,102506.66
2019-03-21T01:36:57.525Z,102507.58
2019-03-21T01:38:04.669Z,102495.77
2019-03-21T01:39:12.471Z,102498.36
2019-03-21T01:40:20.165Z,102501.36
2019-03-21T01:41:27.582Z,102501.91
2019-03-21T01:42:32.060Z,102497.48
2019-03-21T01:43:39.267Z,102498.78
2019-03-21T01:44:47.978Z,102492.17
2019-03-21T02:37:36.137Z,102460.33
2019-03-21T02:39:01.405Z,102461.98
2019-03-21T02:40:26.911Z,102461.08
2019-03-21T02:41:51.685Z,102462.92
2019-03-21T02:58:39.320Z,102460.63
2019-03-21T02:59:47.985Z,102464.59
2019-03-21T03:00:54.885Z,102464.59
2019-03-21T03:01:59.376Z,102466.78
2019-03-21T03:03:04.514Z,102464.91
2019-03-21T03:04:10.123Z,102470.25
2019-03-21T03:17:17.795Z,102475.51
2019-03-21T03:18:23.721Z,102479.03
2019-03-21T03:19:29.172Z,102482.95
2019-03-21T03:20:33.681Z,102480.33
2019-03-21T03:21:41.102Z,102488.30
2019-03-21T03:22:48.476Z,102483.47
2019-03-21T03:23:52.999Z,102484.36
2019-03-21T03:25:44.906Z,102481.75
2019-03-21T03:38:10.910Z,102478.67
2019-03-21T03:39:37.630Z,102477.36
2019-03-21T03:47:53.165Z,102468.53
2019-03-21T04:00:20.686Z,102476.72
2019-03-21T04:30:38.254Z,102493.11
2019-03-21T04:31:45.328Z,102497.05
2019-03-21T04:32:49.807Z,102498.39
2019-03-21T04:34:00.825Z,102498.78
2019-03-21T04:35:10.189Z,102491.80
2019-03-21T04:36:14.737Z,102493.55
2019-03-21T04:37:22.347Z,102491.39
2019-03-21T04:38:27.264Z,102492.73
2019-03-21T04:39:31.734Z,102490.09
2019-03-21T04:40:39.297Z,102485.27
2019-03-21T04:41:45.492Z,102487.00
2019-03-21T04:42:49.964Z,102491.39
2019-03-21T04:43:54.527Z,102493.11
2019-03-21T04:45:00.536Z,102494.45
2019-03-21T04:46:05.159Z,102489.62
2019-03-21T04:47:09.879Z,102487.47
2019-03-21T04:48:14.340Z,102489.67
2019-03-21T04:49:19.812Z,102490.53
2019-03-21T04:50:30.023Z,102492.73
2019-03-21T04:51:34.502Z,102494.45
2019-03-21T04:52:39.285Z,102493.61
2019-03-21T04:53:47.071Z,102497.08
2019-03-21T04:54:53.775Z,102494.95
2019-03-21T04:55:58.305Z,102495.86
2019-03-21T04:57:04.299Z,102496.74
2019-03-21T04:58:14.587Z,102497.18
2019-03-21T04:59:19.363Z,102498.73
2019-03-21T05:00:38.136Z,102498.73
2019-03-21T05:01:44.190Z,102497.48
2019-03-21T05:02:49.499Z,102496.32
2019-03-21T05:03:53.979Z,102492.00
2019-03-21T05:04:58.527Z,102491.90
2019-03-21T05:06:06.306Z,102491.91
2019-03-21T05:07:10.853Z,102492.82
2019-03-21T05:08:16.413Z,102493.73
2019-03-21T05:09:23.809Z,102499.87
2019-03-21T05:10:37.570Z,102497.66
2019-03-21T05:11:44.831Z,102497.66
2019-03-21T05:12:52.626Z,102489.20
2019-03-21T05:13:57.223Z,102496.74
2019-03-21T05:15:01.710Z,102496.85
2019-03-21T05:16:14.245Z,102492.84
2019-03-21T05:17:14.871Z,102495.09
2019-03-21T05:18:22.387Z,102494.70
2019-03-21T05:19:29.752Z,102495.09
2019-03-21T05:20:34.244Z,102487.99
2019-03-21T05:21:41.375Z,102490.19
2019-03-21T05:22:45.907Z,102491.49
2019-03-21T05:23:50.384Z,102488.96
2019-03-21T05:24:54.880Z,102487.24
2019-03-21T05:25:59.341Z,102484.18
2019-03-21T05:27:03.841Z,102486.35
2019-03-21T05:28:11.049Z,102490.75
2019-03-21T05:29:15.597Z,102486.67
2019-03-21T05:30:31.228Z,102486.34
2019-03-21T05:31:36.460Z,102495.02
2019-03-21T05:32:40.930Z,102484.59
2019-03-21T05:33:49.811Z,102491.16
2019-03-21T05:34:54.355Z,102489.04
2019-03-21T05:35:58.999Z,102487.23
2019-03-21T05:37:03.767Z,102486.01
2019-03-21T05:38:08.227Z,102489.52
2019-03-21T05:39:15.654Z,102497.47
2019-03-21T05:40:23.463Z,102490.44
2019-03-21T05:41:28.265Z,102496.52
2019-03-21T05:42:35.434Z,102493.05
2019-03-21T05:43:46.806Z,102492.09
2019-03-21T05:44:53.949Z,102494.69
2019-03-21T05:45:58.438Z,102503.05
2019-03-21T05:47:02.912Z,102500.45
2019-03-21T05:48:07.377Z,102503.48
2019-03-21T05:49:11.857Z,102499.06
2019-03-21T05:50:17.876Z,102505.70
2019-03-21T05:51:29.026Z,102503.08
2019-03-21T05:52:33.491Z,102506.19
2019-03-21T05:53:40.666Z,102500.09
2019-03-21T05:54:45.137Z,102505.78
2019-03-21T05:55:49.619Z,102504.89
2019-03-21T05:56:56.854Z,102501.00
2019-03-21T05:58:01.402Z,102496.59
2019-03-21T05:59:06.206Z,102504.41
2019-03-21T06:00:32.315Z,102503.66
2019-03-21T06:01:40.309Z,102501.03
2019-03-21T06:02:44.776Z,102500.28
2019-03-21T06:03:50.666Z,102503.66
2019-03-21T06:04:55.571Z,102501.08
2019-03-21T06:06:16.934Z,102502.02
2019-03-21T06:07:25.640Z,102501.13
2019-03-21T06:08:38.751Z,102502.42
2019-03-21T06:09:45.884Z,102501.59
2019-03-21T06:10:50.446Z,102501.20
2019-03-21T06:12:03.147Z,102508.31
2019-03-21T06:13:10.330Z,102507.81
2019-03-21T06:14:14.868Z,102509.55
2019-03-21T06:15:25.253Z,102510.94
2019-03-21T06:16:37.541Z,102512.19
2019-03-21T06:17:41.918Z,102518.40
2019-03-21T06:19:01.288Z,102521.45
2019-03-21T06:20:31.633Z,102521.38
2019-03-21T06:21:51.122Z,102517.91
2019-03-21T06:23:02.405Z,102516.20
2019-03-21T06:24:25.027Z,102518.75
2019-03-21T06:25:47.393Z,102523.66
2019-03-21T06:27:14.459Z,102514.94
2019-03-21T06:28:19.036Z,102521.05
2019-03-21T06:29:26.523Z,102526.77
2019-03-21T06:30:33.923Z,102524.22
2019-03-21T06:31:44.715Z,102531.29
2019-03-21T06:32:52.135Z,102531.29
2019-03-21T06:34:01.233Z,102533.92
2019-03-21T06:35:07.736Z,102537.44
2019-03-21T06:36:15.193Z,102530.31
2019-03-21T06:37:19.661Z,102540.14
2019-03-21T06:38:24.131Z,102541.86
2019-03-21T06:39:28.596Z,102538.83
2019-03-21T06:40:35.789Z,102542.23
2019-03-21T06:41:44.269Z,102545.83
2019-03-21T06:42:48.730Z,102544.11
2019-03-21T06:43:54.734Z,102546.71
2019-03-21T06:45:00.837Z,102541.86
2019-03-21T06:46:08.015Z,102547.14
2019-03-21T06:47:12.523Z,102550.65
2019-03-21T06:48:17.024Z,102553.02
2019-03-21T06:49:21.506Z,102553.02
2019-03-21T06:50:33.844Z,102552.61
2019-03-21T06:51:46.315Z,102550.33
2019-03-21T06:52:50.848Z,102531.80
2019-03-21T06:54:01.877Z,102531.80
2019-03-21T06:55:06.582Z,102557.48
2019-03-21T06:56:14.067Z,102550.58
2019-03-21T06:57:18.635Z,102547.12
2019-03-21T06:58:26.284Z,102553.70
2019-03-21T06:59:30.771Z,102552.45
2019-03-21T07:00:41.196Z,102552.47
2019-03-21T07:01:49.086Z,102552.47
2019-03-21T07:02:53.562Z,102553.34
2019-03-21T07:04:06.585Z,102554.66
2019-03-21T07:05:06.291Z,102553.43
2019-03-21T07:06:13.804Z,102559.19
2019-03-21T07:07:18.715Z,102559.19
2019-03-21T07:08:26.409Z,102565.33
2019-03-21T07:09:33.549Z,102553.94
2019-03-21T07:10:38.026Z,102567.15
2019-03-21T07:11:42.944Z,102570.33
2019-03-21T07:12:47.435Z,102570.33
2019-03-21T07:13:51.907Z,102578.57
2019-03-21T07:14:56.380Z,102576.01
2019-03-21T07:16:00.849Z,102579.46
2019-03-21T07:17:05.596Z,102579.46
2019-03-21T07:18:15.734Z,102584.84
2019-03-21T07:19:20.215Z,102576.06
2019-03-21T07:20:24.680Z,102576.89
2019-03-21T07:21:33.140Z,102577.81
2019-03-21T07:22:38.629Z,102577.80
2019-03-21T07:23:43.672Z,102578.63
2019-03-21T07:24:53.201Z,102579.55
2019-03-21T07:25:58.305Z,102580.51
2019-03-21T07:27:06.358Z,102577.94
2019-03-21T07:28:13.567Z,102580.16
2019-03-21T07:29:18.069Z,102571.48
2019-03-21T07:30:28.499Z,102577.09
2019-03-21T07:31:32.970Z,102577.09
2019-03-21T07:32:37.485Z,102569.98
2019-03-21T07:33:46.548Z,102557.66
2019-03-21T07:34:51.047Z,102557.66
2019-03-21T07:35:55.910Z,102582.64
2019-03-21T07:37:03.662Z,102570.75
2019-03-21T07:38:14.476Z,102578.28
2019-03-21T07:39:21.901Z,102579.53
2019-03-21T07:40:29.148Z,102581.20
2019-03-21T07:41:33.998Z,102574.69
2019-03-21T07:42:38.474Z,102580.86
2019-03-21T07:43:45.804Z,102580.92
2019-03-21T07:44:50.263Z,102581.40
2019-03-21T07:45:57.687Z,102576.69
2019-03-21T07:47:12.308Z,102583.80
2019-03-21T07:48:09.839Z,102563.06
2019-03-21T07:49:14.319Z,102584.16
2019-03-21T07:50:19.048Z,102581.45
2019-03-21T07:51:23.520Z,102566.94
2019-03-21T07:52:28.832Z,102583.62
2019-03-21T07:53:38.630Z,102590.27
2019-03-21T07:54:52.206Z,102590.34
2019-03-21T07:55:57.135Z,102584.65
2019-03-21T07:57:01.614Z,102580.29
2019-03-21T07:58:15.537Z,102580.29
2019-03-21T07:59:20.003Z,102586.44
2019-03-21T08:00:29.180Z,102586.44
2019-03-21T08:01:37.405Z,102588.59
2019-03-21T08:02:41.889Z,102589.95
2019-03-21T08:03:49.187Z,102589.95
2019-03-21T08:04:53.668Z,102571.89
2019-03-21T08:05:58.142Z,102593.91
2019-03-21T08:07:02.664Z,102593.08
2019-03-21T08:08:13.071Z,102594.27
2019-03-21T08:09:22.348Z,102599.09
2019-03-21T08:10:26.933Z,102596.95
2019-03-21T08:11:40.489Z,102592.13
2019-03-21T08:12:44.964Z,102589.09
2019-03-21T08:13:49.471Z,102593.48
2019-03-21T08:14:53.929Z,102593.48
2019-03-21T08:15:58.404Z,102591.76
2019-03-21T08:17:02.878Z,102577.23
2019-03-21T08:18:12.408Z,102593.09
2019-03-21T08:19:13.554Z,102594.45
2019-03-21T08:20:19.939Z,102595.83
2019-03-21T08:21:27.354Z,102598.81
2019-03-21T08:22:31.838Z,102597.84
2019-03-21T08:23:36.332Z,102597.44
2019-03-21T08:24:40.814Z,102602.23
2019-03-21T08:25:48.643Z,102600.13
2019-03-21T08:26:53.117Z,102605.70
2019-03-21T08:27:57.982Z,102610.19
2019-03-21T08:29:09.985Z,102599.79
2019-03-21T08:30:40.359Z,102597.10
2019-03-21T08:31:47.816Z,102600.75
2019-03-21T08:32:52.361Z,102603.37
2019-03-21T08:34:05.177Z,102582.09
2019-03-21T08:35:12.496Z,102596.80
2019-03-21T08:36:17.113Z,102594.89
2019-03-21T08:37:21.592Z,102590.72
2019-03-21T08:38:35.204Z,102593.16
2019-03-21T08:39:49.173Z,102598.05
2019-03-21T08:40:53.651Z,102599.49
2019-03-21T08:41:58.483Z,102599.49
2019-03-21T08:43:04.435Z,102594.25
2019-03-21T08:44:12.525Z,102595.25
2019-03-21T08:45:18.444Z,102593.09
2019-03-21T08:46:25.598Z,102592.67
2019-03-21T08:47:32.889Z,102599.73
2019-03-21T08:48:40.032Z,102592.68
2019-03-21T08:49:50.070Z,102595.95
2019-03-21T08:50:54.888Z,102593.27
2019-03-21T08:52:02.032Z,102584.99
2019-03-21T08:53:06.500Z,102595.54
2019-03-21T08:54:10.987Z,102580.10
2019-03-21T08:55:18.533Z,102580.10
2019-03-21T08:56:25.985Z,102603.49
2019-03-21T08:57:31.656Z,102603.02
2019-03-21T08:58:36.482Z,102597.33
2019-03-21T08:59:48.039Z,102602.11
2019-03-21T09:00:55.948Z,102606.08
2019-03-21T09:02:00.431Z,102602.55
2019-03-21T09:03:05.459Z,102608.23
2019-03-21T09:04:11.024Z,102602.42
2019-03-21T09:05:19.036Z,102597.59
2019-03-21T09:06:25.268Z,102599.37
2019-03-21T09:07:31.574Z,102607.75
2019-03-21T09:08:37.114Z,102587.47
2019-03-21T09:09:46.242Z,102587.47
2019-03-21T09:10:52.075Z,102612.91
2019-03-21T09:11:56.536Z,102609.95
2019-03-21T09:13:01.007Z,102609.95
2019-03-21T09:14:05.507Z,102601.12
2019-03-21T09:15:11.211Z,102605.02
2019-03-21T09:16:15.759Z,102602.89
2019-03-21T09:17:23.337Z,102609.11
2019-03-21T09:18:34.144Z,102608.59
2019-03-21T09:19:41.031Z,102608.59
2019-03-21T09:20:46.395Z,102612.59
2019-03-21T09:21:50.865Z,102603.80
2019-03-21T09:23:03.089Z,102603.80
2019-03-21T09:24:09.567Z,102607.91
2019-03-21T09:25:18.965Z,102608.48
2019-03-21T09:26:26.407Z,102603.70
2019-03-21T09:27:33.784Z,102599.41
2019-03-21T09:28:40.090Z,102604.97
2019-03-21T09:29:53.114Z,102602.09
2019-03-21T09:30:50.886Z,102601.09
2019-03-21T09:31:55.854Z,102599.91
2019-03-21T09:33:03.025Z,102597.88
2019-03-21T09:34:07.492Z,102599.20
2019-03-21T09:35:12.711Z,102601.23
2019-03-21T09:36:19.923Z,102597.57
2019-03-21T09:37:27.305Z,102600.30
2019-03-21T09:38:31.783Z,102598.22
2019-03-21T09:39:41.026Z,102596.09
2019-03-21T09:40:48.427Z,102598.77
2019-03-21T09:41:52.900Z,102600.52
2019-03-21T09:42:57.678Z,102600.98
2019-03-21T09:44:02.149Z,102598.81
2019-03-21T09:45:08.302Z,102596.14
2019-03-21T09:46:12.768Z,102593.97
2019-03-21T09:47:17.244Z,102593.33
2019-03-21T09:48:21.745Z,102591.72
2019-03-21T09:49:29.876Z,102585.59
2019-03-21T09:50:34.693Z,102592.09
2019-03-21T09:51:41.860Z,102593.33
2019-03-21T09:52:46.332Z,102589.47
2019-03-21T09:53:50.805Z,102589.03
2019-03-21T09:54:58.567Z,102589.20
2019-03-21T09:56:03.403Z,102567.14
2019-03-21T09:57:07.879Z,102567.14
2019-03-21T09:58:12.367Z,102583.50
2019-03-21T09:59:17.131Z,102581.41
2019-03-21T10:00:27.745Z,102581.90
2019-03-21T10:01:35.048Z,102573.59
2019-03-21T10:02:42.825Z,102579.30
2019-03-21T10:03:47.297Z,102576.30
2019-03-21T10:04:55.725Z,102578.98
2019-03-21T10:06:02.204Z,102578.50
2019-03-21T10:07:07.072Z,102572.39
2019-03-21T10:08:14.591Z,102572.82
2019-03-21T10:09:26.206Z,102570.58
2019-03-21T10:10:34.363Z,102568.38
2019-03-21T10:11:41.770Z,102564.58
2019-03-21T10:12:49.186Z,102565.92
2019-03-21T10:13:53.658Z,102576.03
2019-03-21T10:15:01.575Z,102569.43
2019-03-21T10:16:08.459Z,102568.92
2019-03-21T10:17:16.281Z,102569.83
2019-03-21T10:18:27.672Z,102571.66
2019-03-21T10:19:32.159Z,102569.88
2019-03-21T10:20:39.715Z,102576.45
2019-03-21T10:21:44.195Z,102582.95
2019-03-21T10:22:51.771Z,102574.91
2019-03-21T10:23:56.242Z,102579.27
2019-03-21T10:25:09.396Z,102587.50
2019-03-21T10:26:13.948Z,102589.88
2019-03-21T10:27:25.814Z,102582.39
2019-03-21T10:28:36.676Z,102579.36
2019-03-21T10:29:41.155Z,102582.00
2019-03-21T10:30:48.073Z,102580.73
2019-03-21T10:31:53.810Z,102580.25
2019-03-21T10:33:06.712Z,102586.45
2019-03-21T10:34:11.545Z,102579.39
2019-03-21T10:35:16.404Z,102586.45
2019-03-21T10:36:20.887Z,102583.34
2019-03-21T10:37:28.341Z,102581.54
2019-03-21T10:38:35.529Z,102592.02
2019-03-21T10:39:40.001Z,102579.73
2019-03-21T10:40:44.495Z,102584.64
2019-03-21T10:41:52.177Z,102587.73
2019-03-21T10:43:01.776Z,102591.20
2019-03-21T10:44:07.041Z,102582.92
2019-03-21T10:45:11.577Z,102586.41
2019-03-21T10:46:16.204Z,102583.32
2019-03-21T10:47:24.173Z,102590.73
2019-03-21T10:48:28.649Z,102588.59
2019-03-21T10:49:33.239Z,102578.02
2019-03-21T10:50:39.835Z,102576.78
2019-03-21T10:51:54.396Z,102583.78
2019-03-21T10:52:55.871Z,102577.24
2019-03-21T10:54:03.259Z,102579.42
2019-03-21T10:55:10.683Z,102578.13
2019-03-21T10:56:18.094Z,102576.91
2019-03-21T10:57:25.530Z,102580.36
2019-03-21T10:58:33.068Z,102574.68
2019-03-21T10:59:38.523Z,102575.54
2019-03-21T11:00:50.630Z,102579.09
2019-03-21T11:02:06.909Z,102572.09
2019-03-21T11:03:10.832Z,102576.09
2019-03-21T11:04:18.338Z,102576.45
2019-03-21T11:05:25.743Z,102570.23
2019-03-21T11:06:36.845Z,102568.47
2019-03-21T11:07:44.513Z,102576.00
2019-03-21T11:08:57.723Z,102575.97
2019-03-21T11:10:05.996Z,102574.69
2019-03-21T11:11:10.505Z,102572.06
2019-03-21T11:12:18.128Z,102572.93
2019-03-21T11:13:25.557Z,102576.92
2019-03-21T11:14:30.457Z,102571.56
2019-03-21T11:15:35.518Z,102573.80
2019-03-21T11:16:39.985Z,102578.20
2019-03-21T11:17:44.528Z,102574.20
2019-03-21T11:18:54.969Z,102572.86
2019-03-21T11:20:06.111Z,102563.16
2019-03-21T11:21:10.114Z,102565.39
2019-03-21T11:22:20.305Z,102568.03
2019-03-21T11:23:26.292Z,102566.71
2019-03-21T11:24:37.101Z,102564.97
2019-03-21T11:25:44.352Z,102565.84
2019-03-21T11:26:49.214Z,102567.98
2019-03-21T11:27:54.672Z,102558.87
2019-03-21T11:29:02.662Z,102559.76
2019-03-21T11:30:16.050Z,102559.28
2019-03-21T11:31:16.135Z,102561.89
2019-03-21T11:32:23.757Z,102559.63
2019-03-21T11:33:31.164Z,102561.78
2019-03-21T11:34:35.637Z,102559.57
2019-03-21T11:35:40.182Z,102556.05
2019-03-21T11:36:54.066Z,102553.88
2019-03-21T11:38:00.053Z,102553.47
2019-03-21T11:39:08.066Z,102554.38
2019-03-21T11:40:12.539Z,102556.56
2019-03-21T11:41:17.019Z,102556.99
2019-03-21T11:42:26.593Z,102550.80
2019-03-21T11:43:33.767Z,102553.44
2019-03-21T11:44:39.015Z,102556.54
2019-03-21T11:45:43.575Z,102556.54
2019-03-21T11:46:48.740Z,102563.59
2019-03-21T11:47:53.239Z,102559.14
2019-03-21T11:48:58.034Z,102558.72
2019-03-21T11:50:02.596Z,102559.55
2019-03-21T11:51:07.070Z,102556.14
2019-03-21T11:52:18.179Z,102549.99
2019-03-21T11:53:20.658Z,102549.91
2019-03-21T11:54:28.049Z,102554.33
2019-03-21T11:55:35.054Z,102549.97
2019-03-21T11:56:39.545Z,102546.87
2019-03-21T11:57:46.702Z,102543.83
2019-03-21T11:59:00.271Z,102546.92
2019-03-21T12:00:09.572Z,102545.60
2019-03-21T12:01:14.113Z,102544.28
2019-03-21T12:02:27.185Z,102544.76
2019-03-21T12:03:30.743Z,102543.86
2019-03-21T12:04:36.326Z,102542.50
2019-03-21T12:05:40.805Z,102549.55
2019-03-21T12:06:48.374Z,102548.22
2019-03-21T12:07:55.572Z,102543.83
2019-03-21T12:09:03.167Z,102549.16
2019-03-21T12:10:16.667Z,102555.27
2019-03-21T12:11:23.083Z,102538.59
2019-03-21T12:12:31.356Z,102543.03
2019-03-21T12:13:40.139Z,102539.07
2019-03-21T12:14:49.761Z,102542.16
2019-03-21T12:15:57.720Z,102536.84
2019-03-21T12:17:02.238Z,102542.58
2019-03-21T12:18:09.649Z,102537.70
2019-03-21T12:19:14.488Z,102529.78
2019-03-21T12:20:32.600Z,102530.27
2019-03-21T12:21:37.512Z,102529.39
2019-03-21T12:22:47.277Z,102526.33
2019-03-21T12:23:54.488Z,102528.52
2019-03-21T12:24:59.934Z,102527.21
2019-03-21T12:26:08.977Z,102529.48
2019-03-21T12:27:16.392Z,102529.48
2019-03-21T12:28:23.918Z,102531.19
2019-03-21T12:29:28.388Z,102526.77
2019-03-21T12:30:37.892Z,102521.48
2019-03-21T12:31:42.663Z,102525.05
2019-03-21T12:32:47.149Z,102527.64
2019-03-21T12:33:53.425Z,102522.84
2019-03-21T12:35:06.940Z,102523.25
2019-03-21T12:36:11.412Z,102517.06
2019-03-21T12:37:19.244Z,102520.58
2019-03-21T12:38:23.734Z,102517.95
2019-03-21T12:39:31.492Z,102515.72
2019-03-21T12:40:36.160Z,102522.34
2019-03-21T12:41:40.629Z,102522.77
2019-03-21T12:42:47.840Z,102524.03
2019-03-21T12:43:52.319Z,102521.87
2019-03-21T12:44:56.795Z,102515.75
2019-03-21T12:46:01.600Z,102514.88
2019-03-21T12:47:06.074Z,102513.91
2019-03-21T12:48:10.567Z,102510.80
2019-03-21T12:49:22.448Z,102508.59
2019-03-21T12:50:25.184Z,102514.30
2019-03-21T12:51:32.584Z,102506.84
2019-03-21T12:53:43.567Z,102510.80
2019-03-21T12:54:50.956Z,102509.47
2019-03-21T12:55:59.177Z,102505.92
2019-03-21T12:57:07.618Z,102502.92
2019-03-21T12:58:12.108Z,102505.59
2019-03-21T12:59:19.683Z,102498.99
2019-03-21T13:00:38.100Z,102495.44
2019-03-21T13:01:44.735Z,102498.11
2019-03-21T13:02:49.538Z,102497.26
2019-03-21T13:03:54.043Z,102499.02
2019-03-21T13:04:58.503Z,102493.31
2019-03-21T13:06:02.984Z,102499.91
2019-03-21T13:07:10.614Z,102491.50
2019-03-21T13:07:13.416Z,102523.07
2019-03-21T13:08:15.168Z,102497.64
2019-03-21T13:09:19.643Z,102495.45
2019-03-21T13:10:24.113Z,102500.72
2019-03-21T13:11:28.588Z,102496.33
2019-03-21T13:12:33.060Z,102488.36
2019-03-21T13:13:37.567Z,102491.44
2019-03-21T13:14:42.040Z,102491.00
2019-03-21T13:15:49.784Z,102488.80
2019-03-21T13:16:54.648Z,102484.86
2019-03-21T13:18:00.654Z,102494.13
2019-03-21T13:19:05.351Z,102490.66
2019-03-21T13:20:10.065Z,102492.83
2019-03-21T13:21:17.922Z,102491.92
2019-03-21T13:22:22.459Z,102500.76
2019-03-21T13:23:26.966Z,102494.55
2019-03-21T13:24:31.436Z,102486.64
2019-03-21T13:25:36.286Z,102493.20
2019-03-21T13:26:44.058Z,102491.52
2019-03-21T13:27:51.235Z,102483.13
2019-03-21T13:29:02.054Z,102487.52
2019-03-21T13:30:07.765Z,102480.95
2019-03-21T13:31:14.885Z,102483.63
2019-03-21T13:32:19.361Z,102487.59
2019-03-21T13:33:26.978Z,102486.72
2019-03-21T13:34:34.377Z,102484.06
2019-03-21T13:35:38.854Z,102488.03
2019-03-21T13:36:43.406Z,102484.92
2019-03-21T13:37:47.880Z,102484.50
2019-03-21T13:38:58.332Z,102485.41
2019-03-21T13:40:02.803Z,102487.16
2019-03-21T13:41:07.282Z,102487.14
2019-03-21T13:42:11.752Z,102479.19
2019-03-21T13:43:19.487Z,102485.41
2019-03-21T13:44:23.940Z,102477.05
2019-03-21T13:45:31.823Z,102481.41
2019-03-21T13:46:36.296Z,102488.41
2019-03-21T13:47:47.733Z,102484.89
2019-03-21T13:48:55.787Z,102484.02
2019-03-21T13:50:00.350Z,102478.76
2019-03-21T13:51:04.976Z,102477.81
2019-03-21T13:52:09.739Z,102470.77
2019-03-21T13:53:18.904Z,102475.66
2019-03-21T13:54:21.582Z,102470.80
2019-03-21T13:55:26.054Z,102465.53
2019-03-21T13:56:37.974Z,102473.01
2019-03-21T13:57:42.196Z,102461.56
2019-03-21T13:58:49.611Z,102463.73
2019-03-21T13:59:54.082Z,102457.98
2019-03-21T14:00:58.942Z,102468.57
2019-03-21T14:02:03.417Z,102464.62
2019-03-21T14:03:07.887Z,102465.50
2019-03-21T14:04:12.388Z,102464.22
2019-03-21T14:05:17.311Z,102461.09
2019-03-21T14:06:23.564Z,102462.48
2019-03-21T14:07:28.044Z,102455.88
2019-03-21T14:08:32.523Z,102454.05
2019-03-21T14:09:37.009Z,102454.50
2019-03-21T14:10:41.552Z,102456.73
2019-03-21T14:11:46.030Z,102454.06
2019-03-21T14:12:50.820Z,102454.08
2019-03-21T14:13:58.063Z,102454.55
2019-03-21T14:15:19.469Z,102449.70
2019-03-21T14:16:23.221Z,102448.81
2019-03-21T14:17:28.146Z,102453.19
2019-03-21T14:18:36.943Z,102444.84
2019-03-21T14:19:44.115Z,102444.83
2019-03-21T14:20:51.581Z,102448.38
2019-03-21T14:21:56.071Z,102438.27
2019-03-21T14:23:00.529Z,102438.30
2019-03-21T14:24:05.007Z,102439.22
2019-03-21T14:25:09.916Z,102431.34
2019-03-21T14:26:25.105Z,102430.88
2019-03-21T14:27:30.942Z,102436.14
2019-03-21T14:28:38.589Z,102427.38
2019-03-21T14:29:43.075Z,102429.58
2019-03-21T14:30:48.812Z,102431.80
2019-03-21T14:31:53.282Z,102431.78
2019-03-21T14:33:00.487Z,102432.19
2019-03-21T14:34:04.963Z,102431.75
2019-03-21T14:35:12.736Z,102440.12
2019-03-21T14:36:17.206Z,102433.94
2019-03-21T14:37:21.715Z,102436.58
2019-03-21T14:38:29.102Z,102434.86
2019-03-21T14:39:33.918Z,102444.54
2019-03-21T14:40:41.096Z,102440.14
2019-03-21T14:41:45.574Z,102433.48
2019-03-21T14:42:50.040Z,102437.45
2019-03-21T14:43:54.547Z,102440.07
2019-03-21T14:44:59.287Z,102433.05
2019-03-21T14:46:03.759Z,102436.94
2019-03-21T14:47:11.239Z,102438.30
2019-03-21T14:48:18.669Z,102443.59
2019-03-21T14:49:26.302Z,102439.14
2019-03-21T14:50:35.305Z,102439.63
2019-03-21T14:51:42.772Z,102438.73
2019-03-21T14:52:47.579Z,102442.69
2019-03-21T14:53:52.059Z,102444.04
2019-03-21T14:54:58.744Z,102442.64
2019-03-21T14:56:02.709Z,102442.22
2019-03-21T14:57:07.200Z,102450.59
2019-03-21T14:58:11.653Z,102443.51
2019-03-21T14:59:18.807Z,102444.42
2019-03-21T15:00:26.221Z,102446.63
2019-03-21T15:01:30.697Z,102444.02
2019-03-21T15:02:38.417Z,102437.44
2019-03-21T15:03:42.893Z,102442.73